createdAt,value
2019-06-08T00:02:16.532Z,97993.14
2019-06-08T00:04:47.747Z,97991.39
2019-06-08T00:07:18.926Z,97992.72
2019-06-08T00:09:50.645Z,97995.70
2019-06-08T00:12:22.991Z,97995.73
2019-06-08T00:14:54.531Z,97996.16
2019-06-08T00:17:37.228Z,97992.98
2019-06-08T00:19:58.549Z,97989.45
2019-06-08T00:22:29.832Z,97994.13
2019-06-08T00:25:01.083Z,97994.16
2019-06-08T00:27:33.798Z,97999.20
2019-06-08T00:30:07.965Z,97998.77
2019-06-08T00:32:39.217Z,98008.28
2019-06-08T00:35:10.619Z,98011.30
2019-06-08T00:37:41.767Z,98014.45
2019-06-08T00:40:14.709Z,98016.14
2019-06-08T00:42:45.923Z,98014.33
2019-06-08T00:45:17.651Z,98024.51
2019-06-08T00:47:48.983Z,98019.05
2019-06-08T00:50:21.033Z,98020.58
2019-06-08T00:52:52.585Z,98026.58
2019-06-08T00:55:23.861Z,98026.27
2019-06-08T00:57:55.183Z,98024.98
2019-06-08T01:00:26.862Z,98020.17
2019-06-08T01:02:58.171Z,98027.16
2019-06-08T01:05:30.253Z,98028.34
2019-06-08T01:08:01.362Z,98032.19
2019-06-08T01:10:32.505Z,98031.87
2019-06-08T01:13:03.791Z,98023.22
2019-06-08T01:15:35.257Z,98016.62
2019-06-08T01:18:06.544Z,98023.12
2019-06-08T01:20:37.751Z,98020.29
2019-06-08T01:23:09.163Z,98017.98
2019-06-08T01:25:40.484Z,98022.13
2019-06-08T01:28:11.657Z,98013.33
2019-06-08T01:30:42.891Z,98016.48
2019-06-08T01:33:13.906Z,98024.95
2019-06-08T01:35:45.068Z,98016.52
2019-06-08T01:38:16.325Z,98023.17
2019-06-08T01:40:47.467Z,98015.88
2019-06-08T01:43:18.690Z,98021.70
2019-06-08T01:45:49.844Z,98017.25
2019-06-08T01:48:22.300Z,98018.08
2019-06-08T01:50:54.735Z,98019.41
2019-06-08T01:53:26.874Z,98018.26
2019-06-08T01:55:58.043Z,98014.83
2019-06-08T01:58:29.448Z,98022.42
2019-06-08T02:01:00.684Z,98023.44
2019-06-08T02:03:32.750Z,98017.63
2019-06-08T02:06:04.300Z,98023.12
2019-06-08T02:08:35.655Z,98028.25
2019-06-08T02:11:07.263Z,98024.45
2019-06-08T02:13:38.550Z,98028.76
2019-06-08T02:16:09.754Z,98034.75
2019-06-08T02:18:50.211Z,98034.24
2019-06-08T02:21:13.699Z,98034.42
2019-06-08T02:23:44.712Z,98037.40
2019-06-08T02:26:15.944Z,98039.97
2019-06-08T02:28:47.136Z,98032.01
2019-06-08T02:31:18.481Z,98031.69
2019-06-08T02:33:49.538Z,98029.20
2019-06-08T02:36:20.543Z,98038.17
2019-06-08T02:38:51.591Z,98039.47
2019-06-08T02:41:22.747Z,98037.14
2019-06-08T02:43:53.883Z,98037.67
2019-06-08T02:46:25.478Z,98037.84
2019-06-08T02:49:04.110Z,98042.16
2019-06-08T02:51:31.272Z,98038.00
2019-06-08T02:54:03.405Z,98041.98
2019-06-08T02:56:37.316Z,98038.83
2019-06-08T02:59:09.376Z,98048.29
2019-06-08T03:01:43.190Z,98050.09
2019-06-08T03:04:17.012Z,98048.47
2019-06-08T03:06:51.306Z,98052.74
2019-06-08T03:09:25.769Z,98052.74
2019-06-08T03:11:57.618Z,98051.75
2019-06-08T03:14:30.608Z,98053.57
2019-06-08T03:17:01.951Z,98056.41
2019-06-08T03:19:33.307Z,98060.41
2019-06-08T03:22:04.751Z,98064.39
2019-06-08T03:24:36.600Z,98066.37
2019-06-08T03:27:07.751Z,98063.72
2019-06-08T03:29:39.483Z,98063.03
2019-06-08T03:32:11.602Z,98064.37
2019-06-08T03:34:51.077Z,98063.34
2019-06-08T03:37:15.736Z,98071.13
2019-06-08T03:39:46.857Z,98069.09
2019-06-08T03:42:18.232Z,98065.93
2019-06-08T03:44:49.419Z,98067.59
2019-06-08T03:47:20.653Z,98067.08
2019-06-08T03:49:57.075Z,98073.69
2019-06-08T03:52:24.585Z,98085.64
2019-06-08T03:54:55.548Z,98085.28
2019-06-08T03:57:26.462Z,98086.11
2019-06-08T03:59:57.503Z,98089.88
2019-06-08T04:02:28.817Z,98094.18
2019-06-08T04:05:00.066Z,98095.97
2019-06-08T04:07:31.158Z,98101.58
2019-06-08T04:10:02.764Z,98097.44
2019-06-08T04:12:34.004Z,98109.50
2019-06-08T04:15:07.323Z,98111.00
2019-06-08T04:17:39.699Z,98103.49
2019-06-08T04:20:12.196Z,98109.13
2019-06-08T04:22:47.144Z,98113.39
2019-06-08T04:25:19.088Z,98116.88
2019-06-08T04:27:51.027Z,98118.84
2019-06-08T04:30:22.703Z,98114.52
2019-06-08T04:32:53.653Z,98118.00
2019-06-08T04:35:24.618Z,98118.78
2019-06-08T04:37:55.577Z,98123.26
2019-06-08T04:40:26.680Z,98129.55
2019-06-08T04:42:57.751Z,98129.00
2019-06-08T04:45:28.889Z,98131.46
2019-06-08T04:47:59.984Z,98130.25
2019-06-08T04:50:31.105Z,98138.55
2019-06-08T04:53:01.925Z,98139.33
2019-06-08T04:55:33.174Z,98141.98
2019-06-08T04:58:04.502Z,98144.58
2019-06-08T05:00:35.626Z,98148.25
2019-06-08T05:03:06.909Z,98147.88
2019-06-08T05:05:39.379Z,98161.49
2019-06-08T05:08:11.609Z,98163.46
2019-06-08T05:10:43.253Z,98164.10
2019-06-08T05:13:14.618Z,98165.57
2019-06-08T05:15:45.585Z,98170.38
2019-06-08T05:18:16.593Z,98172.14
2019-06-08T05:20:49.346Z,98176.43
2019-06-08T05:23:20.315Z,98178.06
2019-06-08T05:25:51.351Z,98181.16
2019-06-08T05:28:22.499Z,98189.28
2019-06-08T05:30:53.359Z,98187.55
2019-06-08T05:33:24.421Z,98192.13
2019-06-08T05:35:55.531Z,98191.41
2019-06-08T05:38:26.511Z,98195.91
2019-06-08T05:40:57.551Z,98192.16
2019-06-08T05:43:28.404Z,98200.77
2019-06-08T05:45:59.527Z,98195.85
2019-06-08T05:48:30.818Z,98199.73
2019-06-08T05:51:04.279Z,98205.70
2019-06-08T05:53:34.507Z,98206.43
2019-06-08T05:56:05.842Z,98211.16
2019-06-08T05:58:36.843Z,98210.97
2019-06-08T06:01:08.059Z,98216.52
2019-06-08T06:03:40.331Z,98213.56
2019-06-08T06:06:11.501Z,98219.37
2019-06-08T06:08:42.691Z,98220.34
2019-06-08T06:11:13.783Z,98225.04
2019-06-08T06:13:45.385Z,98230.70
2019-06-08T06:16:16.497Z,98223.91
2019-06-08T06:18:47.637Z,98230.47
2019-06-08T06:21:18.706Z,98236.12
2019-06-08T06:23:49.765Z,98229.45
2019-06-08T06:26:20.991Z,98239.92
2019-06-08T06:28:52.210Z,98242.22
2019-06-08T06:31:23.362Z,98241.66
2019-06-08T06:33:54.435Z,98242.28
2019-06-08T06:36:25.733Z,98253.17
2019-06-08T06:38:56.965Z,98252.61
2019-06-08T06:41:28.036Z,98246.73
2019-06-08T06:43:59.012Z,98245.03
2019-06-08T06:46:30.131Z,98242.22
2019-06-08T06:49:01.302Z,98246.66
2019-06-08T06:51:34.010Z,98241.14
2019-06-08T06:54:05.230Z,98247.61
2019-06-08T06:56:36.405Z,98254.92
2019-06-08T06:59:07.528Z,98254.97
2019-06-08T07:01:38.603Z,98255.20
2019-06-08T07:04:10.471Z,98259.75
2019-06-08T07:06:41.556Z,98263.14
2019-06-08T07:09:12.679Z,98258.59
2019-06-08T07:11:44.504Z,98262.98
2019-06-08T07:14:15.953Z,98261.36
2019-06-08T07:16:47.762Z,98261.80
2019-06-08T07:19:19.080Z,98266.02
2019-06-08T07:21:50.328Z,98275.05
2019-06-08T07:24:21.480Z,98278.48
2019-06-08T07:26:52.778Z,98277.00
2019-06-08T07:29:23.907Z,98283.89
2019-06-08T07:31:55.416Z,98280.34
2019-06-08T07:34:26.607Z,98290.05
2019-06-08T07:36:59.594Z,98295.62
2019-06-08T07:39:30.814Z,98296.89
2019-06-08T07:42:01.797Z,98295.76
2019-06-08T07:44:32.835Z,98296.59
2019-06-08T07:47:04.022Z,98296.42
2019-06-08T07:49:35.244Z,98301.08
2019-06-08T07:52:10.354Z,98308.35
2019-06-08T07:54:39.198Z,98309.96
2019-06-08T07:57:10.236Z,98313.61
2019-06-08T07:59:41.359Z,98308.83
2019-06-08T08:02:12.453Z,98305.94
2019-06-08T08:04:43.446Z,98307.28
2019-06-08T08:07:14.860Z,98313.38
2019-06-08T08:09:45.984Z,98309.55
2019-06-08T08:12:17.262Z,98307.16
2019-06-08T08:14:48.760Z,98309.51
2019-06-08T08:17:19.926Z,98311.56
2019-06-08T08:19:51.318Z,98313.23
2019-06-08T08:22:26.160Z,98312.29
2019-06-08T08:24:58.116Z,98319.52
2019-06-08T08:27:28.124Z,98315.03
2019-06-08T08:30:01.709Z,98326.65
2019-06-08T08:32:32.352Z,98324.61
2019-06-08T08:35:03.671Z,98325.52
2019-06-08T08:37:34.970Z,98324.22
2019-06-08T08:40:08.779Z,98326.34
2019-06-08T08:42:39.747Z,98327.16
2019-06-08T08:45:13.117Z,98317.48
2019-06-08T08:47:44.326Z,98317.42
2019-06-08T08:50:15.688Z,98313.42
2019-06-08T08:52:47.831Z,98322.72
2019-06-08T08:55:20.629Z,98319.10
2019-06-08T08:57:53.263Z,98324.95
2019-06-08T09:00:27.988Z,98322.09
2019-06-08T09:03:19.336Z,98323.97
2019-06-08T09:05:31.237Z,98326.06
2019-06-08T09:08:03.864Z,98324.27
2019-06-08T09:10:35.355Z,98325.08
2019-06-08T09:13:09.276Z,98326.42
2019-06-08T09:15:40.894Z,98320.41
2019-06-08T09:18:12.049Z,98321.95
2019-06-08T09:20:43.299Z,98321.99
2019-06-08T09:23:16.506Z,98322.97
2019-06-08T09:25:48.351Z,98308.08
2019-06-08T09:28:19.772Z,98319.28
2019-06-08T09:30:51.977Z,98320.34
2019-06-08T09:33:23.390Z,98318.74
2019-06-08T09:35:54.892Z,98319.13
2019-06-08T09:38:28.485Z,98323.37
2019-06-08T09:41:01.220Z,98327.23
2019-06-08T09:43:31.697Z,98331.42
2019-06-08T09:46:05.263Z,98339.06
2019-06-08T09:48:38.050Z,98330.44
2019-06-08T09:51:09.254Z,98336.95
2019-06-08T09:53:41.846Z,98332.67
2019-06-08T09:56:12.982Z,98340.45
2019-06-08T09:58:44.081Z,98345.06
2019-06-08T10:01:15.487Z,98355.98
2019-06-08T10:03:48.236Z,98355.17
2019-06-08T10:06:19.431Z,98362.78
2019-06-08T10:08:50.440Z,98363.37
2019-06-08T10:11:21.467Z,98376.92
2019-06-08T10:13:54.374Z,98368.03
2019-06-08T10:16:28.028Z,98377.75
2019-06-08T10:19:02.301Z,98379.29
2019-06-08T10:21:31.312Z,98390.73
2019-06-08T10:24:04.804Z,98396.67
2019-06-08T10:26:37.508Z,98398.48
2019-06-08T10:29:10.316Z,98395.20
2019-06-08T10:31:43.535Z,98404.42
2019-06-08T10:34:13.814Z,98405.83
2019-06-08T10:36:44.850Z,98410.19
2019-06-08T10:39:17.479Z,98401.81
2019-06-08T10:41:51.667Z,98396.11
2019-06-08T10:44:22.417Z,98404.69
2019-06-08T10:46:53.575Z,98409.08
2019-06-08T10:49:25.125Z,98407.23
2019-06-08T10:51:59.012Z,98409.80
2019-06-08T10:54:29.048Z,98413.02
2019-06-08T10:57:02.568Z,98406.70
2019-06-08T10:59:32.784Z,98403.41
2019-06-08T11:02:06.203Z,98398.85
2019-06-08T11:04:38.871Z,98395.39
2019-06-08T11:07:15.812Z,98395.92
2019-06-08T11:09:43.757Z,98385.37
2019-06-08T11:12:16.162Z,98402.23
2019-06-08T11:14:48.152Z,98391.41
2019-06-08T11:17:19.405Z,98393.22
2019-06-08T11:19:50.497Z,98398.23
2019-06-08T11:22:21.615Z,98399.19
2019-06-08T11:24:52.736Z,98401.98
2019-06-08T11:27:23.872Z,98401.48
2019-06-08T11:29:57.453Z,98397.14
2019-06-08T11:32:27.881Z,98401.47
2019-06-08T11:34:59.881Z,98411.88
2019-06-08T11:37:30.805Z,98401.27
2019-06-08T11:40:02.144Z,98405.02
2019-06-08T11:42:33.438Z,98406.76
2019-06-08T11:45:11.057Z,98392.49
2019-06-08T11:47:40.636Z,98398.39
2019-06-08T11:50:13.354Z,98410.55
2019-06-08T11:52:45.058Z,98414.70
2019-06-08T11:55:18.132Z,98412.58
2019-06-08T11:57:49.477Z,98411.65
2019-06-08T12:00:42.001Z,98413.63
2019-06-08T12:03:13.156Z,98411.31
2019-06-08T12:05:44.438Z,98417.77
2019-06-08T12:08:17.645Z,98411.97
2019-06-08T12:10:49.165Z,98426.05
2019-06-08T12:13:20.460Z,98405.73
2019-06-08T12:15:51.595Z,98417.36
2019-06-08T12:18:22.886Z,98421.92
2019-06-08T12:20:53.967Z,98425.77
2019-06-08T12:23:25.165Z,98414.63
2019-06-08T12:25:56.202Z,98415.42
2019-06-08T12:28:28.033Z,98419.09
2019-06-08T12:31:01.044Z,98440.46
2019-06-08T12:33:31.937Z,98437.73
2019-06-08T12:36:02.768Z,98440.81
2019-06-08T12:38:34.738Z,98455.86
2019-06-08T12:41:09.187Z,98451.21
2019-06-08T12:43:38.742Z,98446.63
2019-06-08T12:46:12.593Z,98452.98
2019-06-08T12:48:42.592Z,98472.70
2019-06-08T12:51:14.881Z,98465.77
2019-06-08T12:53:46.494Z,98482.45
2019-06-08T12:56:22.247Z,98480.67
2019-06-08T12:58:51.061Z,98471.64
2019-06-08T13:01:22.251Z,98473.67
2019-06-08T13:03:53.172Z,98475.54
2019-06-08T13:06:24.243Z,98481.31
2019-06-08T13:08:57.492Z,98487.23
2019-06-08T13:11:28.406Z,98498.95
2019-06-08T13:13:59.574Z,98500.77
2019-06-08T13:16:30.558Z,98515.67
2019-06-08T13:19:01.554Z,98509.03
2019-06-08T13:21:35.385Z,98517.14
2019-06-08T13:24:05.468Z,98517.88
2019-06-08T13:26:36.673Z,98534.59
2019-06-08T13:29:09.188Z,98520.52
2019-06-08T13:31:40.386Z,98529.54
2019-06-08T13:34:14.277Z,98535.70
2019-06-08T13:36:44.148Z,98533.91
2019-06-08T13:39:15.261Z,98534.98
2019-06-08T13:41:48.177Z,98540.18
2019-06-08T13:44:19.819Z,98544.61
2019-06-08T13:46:50.929Z,98548.06
2019-06-08T13:49:25.544Z,98589.82
2019-06-08T13:51:54.881Z,98568.23
2019-06-08T13:54:30.811Z,98568.31
2019-06-08T13:56:59.112Z,98570.49
2019-06-08T13:59:30.938Z,98582.29
2019-06-08T14:02:02.125Z,98582.99
2019-06-08T14:04:34.905Z,98576.61
2019-06-08T14:07:07.777Z,98598.65
2019-06-08T14:09:38.933Z,98595.66
2019-06-08T14:12:10.090Z,98598.34
2019-06-08T14:14:41.306Z,98620.97
2019-06-08T14:17:12.686Z,98595.66
2019-06-08T14:19:43.606Z,98603.11
2019-06-08T14:22:14.653Z,98613.02
2019-06-08T14:24:47.833Z,98605.48
2019-06-08T14:27:19.332Z,98613.34
2019-06-08T14:29:51.355Z,98608.68
2019-06-08T14:32:22.531Z,98636.42
2019-06-08T14:34:53.566Z,98633.09
2019-06-08T14:37:24.932Z,98649.46
2019-06-08T14:39:57.438Z,98648.09
2019-06-08T14:42:31.353Z,98641.78
2019-06-08T14:45:01.526Z,98633.61
2019-06-08T14:47:32.788Z,98645.64
2019-06-08T14:50:04.239Z,98638.53
2019-06-08T14:52:37.926Z,98637.40
2019-06-08T14:55:08.158Z,98642.59
2019-06-08T14:57:40.286Z,98642.20
2019-06-08T15:00:13.473Z,98640.38
2019-06-08T15:02:44.542Z,98635.86
2019-06-08T15:05:18.140Z,98636.28
2019-06-08T15:07:48.573Z,98634.31
2019-06-08T15:10:21.475Z,98653.59
2019-06-08T15:12:53.706Z,98643.69
2019-06-08T15:15:25.870Z,98643.66
2019-06-08T15:17:58.397Z,98648.71
2019-06-08T15:20:30.346Z,98649.98
2019-06-08T15:23:01.541Z,98667.36
2019-06-08T15:25:33.048Z,98654.22
2019-06-08T15:28:04.257Z,98660.96
2019-06-08T15:30:38.031Z,98665.02
2019-06-08T15:33:09.415Z,98655.31
2019-06-08T15:35:40.543Z,98653.70
2019-06-08T15:38:11.909Z,98657.38
2019-06-08T15:40:43.361Z,98650.53
2019-06-08T15:43:14.485Z,98667.67
2019-06-08T15:45:48.901Z,98665.55
2019-06-08T15:48:20.471Z,98662.88
2019-06-08T15:50:51.277Z,98664.31
2019-06-08T15:53:22.509Z,98659.78
2019-06-08T15:55:53.825Z,98665.39
2019-06-08T15:58:24.887Z,98672.82
2019-06-08T16:00:56.051Z,98666.53
2019-06-08T16:03:27.444Z,98674.11
2019-06-08T16:05:58.667Z,98670.15
2019-06-08T16:08:30.285Z,98672.52
2019-06-08T16:11:01.703Z,98668.81
2019-06-08T16:13:33.055Z,98677.63
2019-06-08T16:16:04.239Z,98684.38
2019-06-08T16:18:36.000Z,98680.09
2019-06-08T16:21:07.271Z,98688.70
2019-06-08T16:23:38.433Z,98685.77
2019-06-08T16:26:09.632Z,98694.18
2019-06-08T16:28:40.581Z,98690.55
2019-06-08T16:31:13.403Z,98691.17
2019-06-08T16:33:44.450Z,98699.62
2019-06-08T16:36:15.774Z,98694.94
2019-06-08T16:38:47.044Z,98699.92
2019-06-08T16:41:18.062Z,98687.92
2019-06-08T16:43:49.674Z,98695.72
2019-06-08T16:46:20.687Z,98695.95
2019-06-08T16:48:51.843Z,98703.61
2019-06-08T16:51:22.991Z,98711.86
2019-06-08T16:53:54.062Z,98702.60
2019-06-08T16:56:25.268Z,98701.64
2019-06-08T16:58:56.335Z,98715.82
2019-06-08T17:01:28.364Z,98709.32
2019-06-08T17:03:59.521Z,98709.41
2019-06-08T17:06:31.158Z,98713.96
2019-06-08T17:09:02.497Z,98716.91
2019-06-08T17:11:33.755Z,98713.27
2019-06-08T17:14:05.410Z,98713.97
2019-06-08T17:16:36.552Z,98722.34
2019-06-08T17:19:07.662Z,98723.03
2019-06-08T17:21:38.624Z,98724.75
2019-06-08T17:24:09.952Z,98728.49
2019-06-08T17:26:40.908Z,98731.84
2019-06-08T17:29:11.988Z,98733.77
2019-06-08T17:31:42.920Z,98741.30
2019-06-08T17:34:13.978Z,98745.69
2019-06-08T17:36:45.049Z,98743.40
2019-06-08T17:39:16.223Z,98744.41
2019-06-08T17:41:47.396Z,98743.58
2019-06-08T17:44:20.062Z,98745.08
2019-06-08T17:46:51.526Z,98742.09
2019-06-08T17:49:22.486Z,98753.92
2019-06-08T17:51:53.808Z,98764.25
2019-06-08T17:54:25.035Z,98767.44
2019-06-08T17:56:56.334Z,98755.11
2019-06-08T17:59:28.840Z,98768.77
2019-06-08T18:01:59.991Z,98771.45
2019-06-08T18:04:31.394Z,98775.30
2019-06-08T18:07:02.620Z,98772.81
2019-06-08T18:09:33.791Z,98783.45
2019-06-08T18:12:07.618Z,98778.45
2019-06-08T18:14:41.705Z,98776.42
2019-06-08T18:17:11.640Z,98782.02
2019-06-08T18:19:46.248Z,98790.63
2019-06-08T18:22:18.437Z,98792.42
2019-06-08T18:24:48.630Z,98793.22
2019-06-08T18:27:19.565Z,98800.16
2019-06-08T18:29:50.800Z,98809.77
2019-06-08T18:32:21.838Z,98809.40
2019-06-08T18:34:53.122Z,98820.31
2019-06-08T18:37:24.330Z,98814.33
2019-06-08T18:39:57.840Z,98820.64
2019-06-08T18:42:28.664Z,98830.45
2019-06-08T18:44:59.660Z,98836.27
2019-06-08T18:47:30.785Z,98843.45
2019-06-08T18:50:01.941Z,98845.25
2019-06-08T18:52:32.868Z,98848.85
2019-06-08T18:55:08.175Z,98848.89
2019-06-08T18:57:39.873Z,98848.55
2019-06-08T19:00:12.414Z,98850.34
2019-06-08T19:02:46.250Z,98854.16
2019-06-08T19:05:20.730Z,98857.92
2019-06-08T19:07:51.934Z,98864.23
2019-06-08T19:10:37.863Z,98866.05
2019-06-08T19:13:08.857Z,98866.05
2019-06-08T19:15:44.274Z,98868.98
2019-06-08T19:18:13.148Z,98871.45
2019-06-08T19:20:47.226Z,98874.67
2019-06-08T19:23:20.665Z,98877.20
2019-06-08T19:25:49.811Z,98880.30
2019-06-08T19:28:35.220Z,98888.30
2019-06-08T19:30:54.031Z,98891.48
2019-06-08T19:33:27.590Z,98897.63
2019-06-08T19:35:58.447Z,98897.63
2019-06-08T19:38:29.506Z,98906.42
2019-06-08T19:41:00.621Z,98906.25
2019-06-08T19:43:31.770Z,98912.11
2019-06-08T19:46:02.718Z,98920.75
2019-06-08T19:48:33.549Z,98926.06
2019-06-08T19:51:04.530Z,98927.63
2019-06-08T19:53:41.622Z,98926.62
2019-06-08T19:56:08.110Z,98923.64
2019-06-08T19:58:52.404Z,98924.38
2019-06-08T20:01:12.263Z,98925.05
2019-06-08T20:03:44.711Z,98925.05
2019-06-08T20:06:17.601Z,98924.71
2019-06-08T20:08:51.139Z,98925.10
2019-06-08T20:11:21.227Z,98924.94
2019-06-08T20:13:52.312Z,98925.45
2019-06-08T20:16:23.360Z,98924.31
2019-06-08T20:18:54.605Z,98936.66
2019-06-08T20:21:27.586Z,98933.16
2019-06-08T20:23:58.713Z,98934.67
2019-06-08T20:26:30.047Z,98935.50
2019-06-08T20:29:12.106Z,98942.82
2019-06-08T20:31:33.841Z,98947.80
2019-06-08T20:34:06.948Z,98946.13
2019-06-08T20:36:37.743Z,98950.13
2019-06-08T20:39:09.586Z,98953.12
2019-06-08T20:41:41.754Z,98951.45
2019-06-08T20:44:12.888Z,98954.61
2019-06-08T20:46:44.123Z,98951.09
2019-06-08T20:49:17.164Z,98949.77
2019-06-08T20:51:49.419Z,98950.44
2019-06-08T20:54:20.665Z,98950.88
2019-06-08T20:56:52.133Z,98955.52
2019-06-08T20:59:30.950Z,98959.65
2019-06-08T21:01:58.861Z,98962.09
2019-06-08T21:04:30.276Z,98956.10
2019-06-08T21:07:01.351Z,98960.06
2019-06-08T21:09:32.383Z,98972.86
2019-06-08T21:12:03.799Z,98964.67
2019-06-08T21:14:34.693Z,98973.63
2019-06-08T21:17:07.644Z,98978.86
2019-06-08T21:19:38.501Z,98974.38
2019-06-08T21:22:11.035Z,98980.96
2019-06-08T21:24:42.001Z,98982.60
2019-06-08T21:27:12.986Z,98987.95
2019-06-08T21:29:49.082Z,98993.56
2019-06-08T21:32:17.751Z,98994.00
2019-06-08T21:34:51.736Z,99000.70
2019-06-08T21:37:21.541Z,99006.59
2019-06-08T21:39:55.371Z,99003.11
2019-06-08T21:42:27.653Z,99009.56
2019-06-08T21:44:59.995Z,99003.28
2019-06-08T21:47:30.611Z,99002.97
2019-06-08T21:50:01.728Z,99004.80
2019-06-08T21:52:32.709Z,99002.14
2019-06-08T21:55:03.850Z,99010.25
2019-06-08T21:57:36.983Z,99009.36
2019-06-08T22:00:29.407Z,99015.80
2019-06-08T22:02:47.831Z,99011.22
2019-06-08T22:05:18.362Z,99015.73
2019-06-08T22:07:50.095Z,99018.05
2019-06-08T22:10:21.401Z,99022.59
2019-06-08T22:12:53.829Z,99025.74
2019-06-08T22:15:27.152Z,99018.77
2019-06-08T22:18:00.144Z,99023.05
2019-06-08T22:20:31.157Z,99019.48
2019-06-08T22:23:02.061Z,99024.64
2019-06-08T22:25:33.383Z,99018.72
2019-06-08T22:28:07.026Z,99016.91
2019-06-08T22:30:42.738Z,99014.89
2019-06-08T22:33:09.802Z,99019.66
2019-06-08T22:35:40.850Z,99020.15
2019-06-08T22:38:11.825Z,99014.42
2019-06-08T22:40:42.950Z,99018.35
2019-06-08T22:43:14.080Z,99019.83
2019-06-08T22:45:45.131Z,99017.92
2019-06-08T22:48:18.638Z,99021.70
2019-06-08T22:50:48.676Z,99026.67
2019-06-08T22:53:19.546Z,99028.41
2019-06-08T22:55:50.518Z,99024.03
2019-06-08T22:58:21.598Z,99026.05
2019-06-08T23:00:53.197Z,99026.84
2019-06-08T23:03:25.130Z,99029.95
2019-06-08T23:05:59.744Z,99028.22
2019-06-08T23:08:29.184Z,99036.09
2019-06-08T23:11:02.066Z,99043.45
2019-06-08T23:13:33.430Z,99037.02
2019-06-08T23:16:06.215Z,99032.75
2019-06-08T23:18:37.421Z,99034.01
2019-06-08T23:21:09.121Z,99031.08
2019-06-08T23:23:40.107Z,99028.28
2019-06-08T23:26:11.243Z,99030.94
2019-06-08T23:28:42.234Z,99029.01
2019-06-08T23:31:22.522Z,99036.23
2019-06-08T23:33:48.299Z,99036.38
2019-06-08T23:36:45.641Z,99039.38
2019-06-08T23:38:52.208Z,99041.67
2019-06-08T23:41:23.444Z,99042.79
2019-06-08T23:43:54.689Z,99046.28
2019-06-08T23:46:27.363Z,99053.04
2019-06-08T23:49:01.521Z,99049.55
2019-06-08T23:51:31.852Z,99049.80
2019-06-08T23:54:04.262Z,99049.73
2019-06-08T23:56:37.062Z,99047.38
2019-06-08T23:59:09.454Z,99042.67
